Time;durP1;ratioP1;P1;durP2;ratioP2;P2;SDS_P1;SDS_P2;PMS_P1;PMS_P2;Temp;Humidity;BMP_temperature;BMP_pressure;BME280_temperature;BME280_humidity;BME280_pressure;Samples;Min_cycle;Max_cycle;Signal;HPM_P1;HPM_P2
2021/03/07 00:01:50;;;;;;;7.07;3.50;;;;;;;-0.71;40.21;94946.34;5090001;28;20031;-76
2021/03/07 00:04:15;;;;;;;6.78;3.15;;;;;;;-0.73;39.97;94954.44;5089729;28;20040;-76
2021/03/07 00:06:41;;;;;;;7.47;3.83;;;;;;;-0.73;40.25;94961.47;5089764;28;20020;-76
2021/03/07 00:09:06;;;;;;;7.18;3.33;;;;;;;-0.77;39.93;94958.50;5089855;28;20023;-76
2021/03/07 00:11:31;;;;;;;10.45;2.92;;;;;;;-0.82;39.88;94958.31;5089673;28;20020;-76
2021/03/07 00:13:57;;;;;;;7.78;3.30;;;;;;;-0.74;40.29;94967.72;5091166;28;20031;-75
2021/03/07 00:16:22;;;;;;;6.22;3.03;;;;;;;-0.77;40.37;94962.91;5089716;28;20035;-75
2021/03/07 00:18:48;;;;;;;5.72;3.17;;;;;;;-0.74;39.81;94958.03;5089637;28;20032;-75
2021/03/07 00:21:15;;;;;;;11.07;4.07;;;;;;;-0.73;40.34;94958.84;5089547;28;20036;-75
2021/03/07 00:23:41;;;;;;;6.72;3.05;;;;;;;-0.72;39.75;94963.88;5089463;28;20046;-75
2021/03/07 00:26:06;;;;;;;6.70;3.20;;;;;;;-0.79;40.60;94959.69;5089339;28;20032;-75
2021/03/07 00:28:32;;;;;;;12.15;3.45;;;;;;;-0.78;40.81;94956.88;5089368;28;20046;-76
2021/03/07 00:30:58;;;;;;;13.10;3.53;;;;;;;-0.81;40.05;94954.69;5089571;28;20024;-75
2021/03/07 00:33:23;;;;;;;7.95;3.03;;;;;;;-0.82;40.33;94955.69;5089596;28;20024;-75
2021/03/07 00:35:49;;;;;;;6.53;3.08;;;;;;;-0.76;40.26;94946.19;5089528;28;20487;-75
2021/03/07 00:38:14;;;;;;;8.10;3.42;;;;;;;-0.78;40.63;94949.03;5092137;28;20024;-75
2021/03/07 00:40:40;;;;;;;6.47;3.20;;;;;;;-0.79;40.61;94951.84;5092795;28;20031;-75
2021/03/07 00:43:05;;;;;;;7.82;3.55;;;;;;;-0.95;40.23;94954.00;5093067;28;20398;-75
2021/03/07 00:45:32;;;;;;;6.78;3.05;;;;;;;-0.99;40.84;94950.22;5092822;28;20402;-75
2021/03/07 00:47:57;;;;;;;5.75;2.97;;;;;;;-1.03;41.23;94949.03;5092639;28;20032;-75
2021/03/07 00:50:26;;;;;;;10.32;3.28;;;;;;;-1.04;40.72;94948.25;5092702;28;20028;-75
2021/03/07 00:52:57;;;;;;;7.97;3.58;;;;;;;-1.17;41.52;94932.63;5091641;28;20078;-75
2021/03/07 00:55:23;;;;;;;8.50;3.05;;;;;;;-1.30;41.10;94928.31;5092755;28;20031;-74
2021/03/07 00:57:49;;;;;;;9.98;3.38;;;;;;;-1.39;41.55;94928.78;5092510;28;20190;-75
2021/03/07 01:00:22;;;;;;;8.95;3.35;;;;;;;-1.46;42.03;94927.00;5093913;28;20082;-75
2021/03/07 01:02:48;;;;;;;6.95;2.92;;;;;;;-1.42;41.69;94930.81;5093286;28;20036;-75
2021/03/07 01:05:14;;;;;;;6.38;3.15;;;;;;;-1.41;41.95;94929.78;5092518;28;20522;-75
2021/03/07 01:07:40;;;;;;;8.20;3.20;;;;;;;-1.50;41.11;94925.84;5092495;28;20024;-76
2021/03/07 01:10:15;;;;;;;10.38;4.30;;;;;;;-1.50;41.57;94920.59;5092427;28;20114;-74
2021/03/07 01:12:41;;;;;;;9.30;2.72;;;;;;;-1.54;42.08;94921.25;5092233;28;20028;-74
2021/03/07 01:15:07;;;;;;;7.05;3.15;;;;;;;-1.53;41.99;94913.16;5092554;28;20472;-74
2021/03/07 01:17:33;;;;;;;8.10;3.28;;;;;;;-1.51;42.10;94921.59;5092410;28;20028;-73
2021/03/07 01:19:58;;;;;;;8.25;3.33;;;;;;;-1.46;42.41;94924.41;5093719;28;20032;-74
2021/03/07 01:22:24;;;;;;;8.77;3.83;;;;;;;-1.61;42.31;94926.50;5092841;28;20085;-74
2021/03/07 01:24:49;;;;;;;6.88;3.33;;;;;;;-1.56;42.49;94918.84;5092112;28;20024;-75
2021/03/07 01:27:15;;;;;;;8.77;3.90;;;;;;;-1.58;43.10;94926.09;5091929;28;20395;-74
2021/03/07 01:29:40;;;;;;;6.97;3.42;;;;;;;-1.51;43.08;94913.75;5093552;28;20054;-74
2021/03/07 01:32:06;;;;;;;7.28;2.90;;;;;;;-1.60;42.88;94911.63;5092276;28;20038;-74
2021/03/07 01:34:31;;;;;;;6.57;3.45;;;;;;;-1.60;42.11;94917.66;5092360;28;20443;-74
2021/03/07 01:36:56;;;;;;;6.93;3.25;;;;;;;-1.60;42.43;94912.44;5092061;28;20441;-74
2021/03/07 01:39:23;;;;;;;5.68;3.15;;;;;;;-1.64;42.47;94917.28;5091755;28;20020;-74
2021/03/07 01:41:48;;;;;;;6.50;3.28;;;;;;;-1.65;42.31;94909.63;5093044;28;20055;-74
2021/03/07 01:44:14;;;;;;;14.77;4.13;;;;;;;-1.60;42.28;94898.56;5091518;28;20032;-74
2021/03/07 01:46:39;;;;;;;8.15;3.30;;;;;;;-1.62;42.46;94904.78;5091495;28;20016;-74
2021/03/07 01:49:05;;;;;;;7.50;3.45;;;;;;;-1.66;42.50;94902.81;5090882;28;20372;-75
2021/03/07 01:51:30;;;;;;;8.00;3.75;;;;;;;-1.66;42.17;94903.59;5091418;28;20038;-74
2021/03/07 01:53:56;;;;;;;8.45;3.63;;;;;;;-1.62;42.17;94894.31;5091418;28;20036;-75
2021/03/07 01:56:24;;;;;;;7.18;3.40;;;;;;;-1.60;41.78;94888.91;5092452;28;20048;-75
2021/03/07 01:58:52;;;;;;;8.95;3.60;;;;;;;-1.59;41.90;94892.31;5090856;28;20107;-74
2021/03/07 02:01:17;;;;;;;7.80;3.45;;;;;;;-1.63;42.11;94882.28;5090750;28;20028;-74
2021/03/07 02:03:53;;;;;;;8.85;4.22;;;;;;;-1.68;41.79;94887.34;5091107;28;20500;-74
2021/03/07 02:06:20;;;;;;;7.65;3.95;;;;;;;-1.66;42.01;94881.91;5090913;28;20507;-74
2021/03/07 02:08:46;;;;;;;10.30;3.92;;;;;;;-1.62;42.00;94876.03;5091173;28;20026;-74
2021/03/07 02:11:12;;;;;;;11.30;4.28;;;;;;;-1.64;42.46;94879.88;5092157;28;20027;-75
2021/03/07 02:13:41;;;;;;;10.23;4.40;;;;;;;-1.65;42.58;94880.88;5092269;28;20028;-74
2021/03/07 02:16:11;;;;;;;17.35;4.97;;;;;;;-1.67;42.39;94873.25;5092012;28;20031;-75
2021/03/07 02:18:38;;;;;;;12.35;4.50;;;;;;;-1.63;42.17;94876.22;5090478;28;20059;-74
2021/03/07 02:21:09;;;;;;;10.77;4.13;;;;;;;-1.71;42.07;94879.09;5091581;28;20084;-74
2021/03/07 02:23:56;;;;;;;7.75;3.80;;;;;;;-1.68;42.38;94882.09;5091608;28;20032;-74
2021/03/07 02:26:21;;;;;;;12.73;4.22;;;;;;;-1.74;42.59;94882.16;5090496;28;20097;-74
2021/03/07 02:28:47;;;;;;;7.20;3.13;;;;;;;-1.77;42.26;94877.34;5090867;28;20047;-74
2021/03/07 02:31:14;;;;;;;12.60;3.70;;;;;;;-1.77;42.28;94890.41;5090854;28;20064;-74
2021/03/07 02:33:41;;;;;;;8.02;4.05;;;;;;;-1.78;42.60;94886.19;5092363;28;20035;-74
2021/03/07 02:36:20;;;;;;;8.45;3.58;;;;;;;-1.86;42.46;94869.75;5090481;28;20071;-74
2021/03/07 02:38:48;;;;;;;9.23;4.57;;;;;;;-1.80;42.65;94872.53;5090759;28;20075;-74
2021/03/07 02:41:16;;;;;;;6.00;3.22;;;;;;;-1.76;42.46;94871.09;5090666;28;20122;-74
2021/03/07 02:43:45;;;;;;;9.55;3.58;;;;;;;-1.71;42.19;94861.63;5090895;28;20448;-74
2021/03/07 02:46:15;;;;;;;8.52;3.50;;;;;;;-1.65;42.14;94862.56;5090610;28;20035;-74
2021/03/07 02:48:44;;;;;;;12.25;3.70;;;;;;;-1.61;42.11;94858.53;5090564;28;20023;-74
2021/03/07 02:51:11;;;;;;;9.25;3.70;;;;;;;-1.57;41.92;94867.53;5090427;28;20024;-75
2021/03/07 02:53:38;;;;;;;7.15;3.55;;;;;;;-1.54;42.33;94864.53;5090662;28;20063;-74
2021/03/07 02:56:15;;;;;;;10.88;3.63;;;;;;;-1.47;42.28;94859.22;5090062;28;20028;-74
2021/03/07 02:58:42;;;;;;;10.55;3.80;;;;;;;-1.42;42.03;94862.81;5090177;28;20028;-74
2021/03/07 03:01:11;;;;;;;7.38;3.40;;;;;;;-1.38;41.96;94859.75;5090607;28;20038;-74
2021/03/07 03:03:41;;;;;;;7.90;3.42;;;;;;;-1.33;41.82;94857.31;5091059;28;20031;-74
2021/03/07 03:06:09;;;;;;;8.45;3.65;;;;;;;-1.32;41.84;94861.50;5089621;28;20044;-74
2021/03/07 03:08:35;;;;;;;11.15;3.13;;;;;;;-1.35;42.30;94852.28;5089859;28;20088;-75
2021/03/07 03:11:01;;;;;;;9.27;3.10;;;;;;;-1.29;42.19;94866.34;5089913;28;20028;-75
2021/03/07 03:13:28;;;;;;;8.13;3.70;;;;;;;-1.26;42.32;94855.47;5091017;28;20043;-75
2021/03/07 03:15:54;;;;;;;7.43;3.30;;;;;;;-1.28;42.09;94855.66;5091119;28;20032;-74
2021/03/07 03:18:20;;;;;;;7.75;2.95;;;;;;;-1.35;41.99;94857.53;5088308;28;20530;-75
2021/03/07 03:20:48;;;;;;;7.03;3.15;;;;;;;-1.49;42.20;94856.81;5089764;28;20020;-75
2021/03/07 03:23:14;;;;;;;6.13;3.10;;;;;;;-1.69;42.48;94856.16;5089928;28;20046;-74
2021/03/07 03:25:39;;;;;;;4.15;2.80;;;;;;;-1.70;42.63;94858.00;5089549;28;20020;-75
2021/03/07 03:28:07;;;;;;;6.57;2.60;;;;;;;-1.76;42.59;94850.19;5089660;28;20105;-74
2021/03/07 03:30:33;;;;;;;6.15;3.13;;;;;;;-1.83;42.41;94855.47;5089610;28;20028;-74
2021/03/07 03:32:59;;;;;;;5.85;2.83;;;;;;;-1.95;42.46;94844.91;5091157;28;20031;-75
2021/03/07 03:35:24;;;;;;;7.03;3.67;;;;;;;-1.94;42.64;94843.88;5088210;28;20417;-76
2021/03/07 03:37:50;;;;;;;11.10;3.47;;;;;;;-1.97;42.67;94844.31;5089513;28;20152;-76
2021/03/07 03:40:27;;;;;;;7.82;2.65;;;;;;;-1.96;42.82;94847.72;5089658;28;20030;-75
2021/03/07 03:43:08;;;;;;;7.85;2.97;;;;;;;-1.96;43.00;94856.34;5089598;28;20055;-75
2021/03/07 03:45:41;;;;;;;11.07;3.63;;;;;;;-1.95;43.31;94857.16;5089472;28;20032;-75
2021/03/07 03:48:17;;;;;;;11.85;3.15;;;;;;;-1.94;43.50;94854.31;5089401;28;20046;-73
2021/03/07 03:50:44;;;;;;;7.07;3.10;;;;;;;-1.89;43.59;94857.13;5089224;28;20027;-74
2021/03/07 03:53:16;;;;;;;5.70;2.97;;;;;;;-1.79;43.59;94861.88;5089240;28;20411;-74
2021/03/07 03:55:46;;;;;;;6.70;3.35;;;;;;;-1.77;43.04;94853.81;5089164;28;20100;-74
2021/03/07 03:58:12;;;;;;;6.28;3.45;;;;;;;-1.81;43.65;94863.91;5089177;28;20127;-73
2021/03/07 04:00:40;;;;;;;8.48;3.55;;;;;;;-1.78;44.09;94852.22;5089203;28;20032;-74
2021/03/07 04:03:10;;;;;;;8.95;3.10;;;;;;;-1.69;45.17;94851.75;5090802;28;20498;-73
2021/03/07 04:05:36;;;;;;;7.97;3.67;;;;;;;-1.66;46.05;94863.59;5087840;28;20078;-74
2021/03/07 04:08:02;;;;;;;8.80;3.83;;;;;;;-1.69;46.71;94850.94;5089946;28;20032;-75
2021/03/07 04:10:29;;;;;;;10.80;3.67;;;;;;;-1.66;46.67;94855.75;5090021;28;20391;-75
2021/03/07 04:13:00;;;;;;;8.73;4.25;;;;;;;-1.68;46.78;94860.41;5089030;28;20028;-75
2021/03/07 04:15:27;;;;;;;11.85;4.60;;;;;;;-1.68;47.30;94852.56;5091122;28;20031;-74
2021/03/07 04:17:54;;;;;;;10.20;4.65;;;;;;;-1.71;47.60;94861.63;5088932;28;20376;-74
2021/03/07 04:20:20;;;;;;;12.25;4.72;;;;;;;-1.67;47.65;94859.38;5089027;28;20020;-75
2021/03/07 04:22:49;;;;;;;12.98;5.45;;;;;;;-1.71;47.66;94858.19;5088929;28;20024;-75
2021/03/07 04:25:14;;;;;;;10.00;4.80;;;;;;;-1.69;47.97;94866.63;5089044;28;20142;-75
2021/03/07 04:27:40;;;;;;;17.25;5.25;;;;;;;-1.73;48.84;94858.44;5090170;28;20097;-75
2021/03/07 04:30:07;;;;;;;13.68;5.57;;;;;;;-1.80;49.13;94857.66;5089319;28;20066;-75
2021/03/07 04:32:34;;;;;;;27.15;8.35;;;;;;;-1.76;46.07;94856.22;5088907;28;20069;-74
2021/03/07 04:35:01;;;;;;;21.55;7.60;;;;;;;-1.77;45.54;94838.94;5088551;28;20024;-75
2021/03/07 04:37:27;;;;;;;24.67;7.35;;;;;;;-1.83;46.09;94845.81;5088487;28;20475;-75
2021/03/07 04:39:53;;;;;;;12.90;5.63;;;;;;;-1.83;45.50;94850.25;5088217;28;20088;-74
2021/03/07 04:42:18;;;;;;;9.23;4.38;;;;;;;-1.95;45.06;94839.66;5088649;28;20031;-74
2021/03/07 04:44:44;;;;;;;6.60;3.78;;;;;;;-1.98;44.85;94842.69;5090015;28;20024;-75
2021/03/07 04:47:09;;;;;;;14.27;5.63;;;;;;;-2.05;45.79;94847.97;5089186;28;20024;-76
2021/03/07 04:49:34;;;;;;;16.27;6.50;;;;;;;-2.05;46.02;94847.16;5088485;28;20395;-76
2021/03/07 04:52:01;;;;;;;19.77;6.57;;;;;;;-2.00;47.17;94843.91;5089716;28;20028;-76
2021/03/07 04:54:26;;;;;;;14.20;6.10;;;;;;;-1.97;47.95;94857.38;5088279;28;20471;-76
2021/03/07 04:56:51;;;;;;;19.83;7.68;;;;;;;-1.94;48.51;94854.31;5088435;28;20127;-77
2021/03/07 04:59:17;;;;;;;19.08;7.63;;;;;;;-1.96;48.85;94861.56;5088718;28;20028;-77
2021/03/07 05:01:42;;;;;;;19.60;7.70;;;;;;;-1.99;48.38;94859.38;5088657;28;20106;-76
2021/03/07 05:04:08;;;;;;;14.35;6.60;;;;;;;-1.96;48.58;94842.47;5088630;28;20403;-77
2021/03/07 05:06:41;;;;;;;17.27;7.10;;;;;;;-1.94;48.45;94846.47;5088730;28;20055;-76
2021/03/07 05:09:10;;;;;;;18.90;6.97;;;;;;;-1.95;48.85;94852.72;5088763;28;20016;-76
2021/03/07 05:11:36;;;;;;;17.60;5.65;;;;;;;-1.92;49.17;94848.88;5088888;28;20030;-76
2021/03/07 05:14:03;;;;;;;14.60;6.10;;;;;;;-1.90;49.03;94852.09;5088799;28;20453;-76
2021/03/07 05:16:28;;;;;;;12.80;5.63;;;;;;;-1.90;48.59;94845.06;5090083;28;20130;-76
2021/03/07 05:18:55;;;;;;;15.32;5.32;;;;;;;-1.86;48.97;94851.44;5088229;28;20036;-76
2021/03/07 05:21:20;;;;;;;10.18;4.80;;;;;;;-1.81;49.35;94858.69;5088448;28;20028;-75
2021/03/07 05:23:46;;;;;;;10.35;5.50;;;;;;;-1.77;48.98;94864.25;5090528;28;20039;-75
2021/03/07 05:26:11;;;;;;;12.82;5.82;;;;;;;-1.76;48.49;94858.03;5092191;28;20114;-75
2021/03/07 05:28:37;;;;;;;12.38;4.97;;;;;;;-1.70;48.21;94862.41;5092223;28;20434;-75
2021/03/07 05:31:03;;;;;;;13.50;6.10;;;;;;;-1.65;48.39;94862.56;5093798;28;20028;-74
2021/03/07 05:33:29;;;;;;;16.98;7.30;;;;;;;-1.60;47.80;94861.97;5092491;28;20024;-75
2021/03/07 05:35:54;;;;;;;22.33;6.63;;;;;;;-1.52;47.88;94867.72;5092332;28;20110;-75
2021/03/07 05:38:21;;;;;;;22.92;8.65;;;;;;;-1.50;47.70;94867.50;5091782;28;20546;-75
2021/03/07 05:40:47;;;;;;;17.48;8.40;;;;;;;-1.49;47.46;94869.91;5093356;28;20020;-75
2021/03/07 05:43:12;;;;;;;18.45;8.23;;;;;;;-1.42;47.21;94873.28;5092463;28;20023;-75
2021/03/07 05:45:38;;;;;;;27.25;8.82;;;;;;;-1.31;47.54;94868.38;5091667;28;20027;-75
2021/03/07 05:48:04;;;;;;;17.13;7.55;;;;;;;-1.24;47.42;94871.75;5091704;28;20028;-76
2021/03/07 05:50:29;;;;;;;17.40;7.22;;;;;;;-1.17;46.93;94864.63;5093474;28;20100;-76
2021/03/07 05:52:57;;;;;;;14.27;5.28;;;;;;;-1.10;45.95;94861.94;5093882;28;20024;-76
2021/03/07 05:55:26;;;;;;;11.20;5.40;;;;;;;-0.99;45.96;94863.06;5092613;28;20170;-76
2021/03/07 05:57:55;;;;;;;15.48;5.75;;;;;;;-0.99;45.99;94863.06;5101259;28;20084;-76
2021/03/07 06:00:22;;;;;;;12.35;6.05;;;;;;;-0.94;46.28;94868.44;5092537;28;20085;-76
2021/03/07 06:02:47;;;;;;;11.02;5.88;;;;;;;-0.88;45.79;94864.94;5095056;28;20028;-78
2021/03/07 06:05:15;;;;;;;14.80;6.47;;;;;;;-0.86;45.69;94863.72;5092429;28;20060;-77
2021/03/07 06:07:41;;;;;;;14.20;6.03;;;;;;;-0.79;45.51;94862.84;5092391;28;20086;-77
2021/03/07 06:10:27;;;;;;;14.57;6.05;;;;;;;-0.79;45.74;94858.44;5097731;28;20024;-77
2021/03/07 06:13:01;;;;;;;12.15;6.00;;;;;;;-0.71;45.79;94854.69;5095925;28;20580;-77
2021/03/07 06:15:28;;;;;;;10.95;6.00;;;;;;;-0.67;45.79;94848.84;5093299;28;20042;-76
2021/03/07 06:17:54;;;;;;;11.18;5.68;;;;;;;-0.63;45.57;94864.91;5096152;28;20038;-77
2021/03/07 06:20:25;;;;;;;13.23;6.65;;;;;;;-0.67;45.93;94861.94;5100818;28;20024;-78
2021/03/07 06:23:02;;;;;;;14.73;6.32;;;;;;;-0.56;45.79;94864.84;5094103;28;20027;-77
2021/03/07 06:25:29;;;;;;;14.02;6.22;;;;;;;-0.54;45.37;94870.66;5095002;28;20020;-77
2021/03/07 06:27:56;;;;;;;12.32;6.72;;;;;;;-0.47;45.53;94868.75;5093596;28;20078;-77
2021/03/07 06:30:31;;;;;;;12.52;6.18;;;;;;;-0.45;45.05;94866.69;5091859;28;20016;-77
2021/03/07 06:32:59;;;;;;;19.95;7.22;;;;;;;-0.56;44.98;94870.06;5091227;28;20020;-77
2021/03/07 06:35:26;;;;;;;11.93;6.20;;;;;;;-0.56;44.73;94864.84;5090611;28;20089;-76
2021/03/07 06:38:05;;;;;;;14.20;6.15;;;;;;;-0.64;45.06;94869.31;5090364;28;20110;-76
2021/03/07 06:40:49;;;;;;;10.70;5.68;;;;;;;-0.58;45.11;94857.19;5090375;28;20089;-76
2021/03/07 06:43:20;;;;;;;15.90;6.78;;;;;;;-0.46;45.44;94865.91;5090257;28;20036;-77
2021/03/07 06:45:46;;;;;;;22.20;8.38;;;;;;;-0.33;44.84;94870.19;5090246;28;20062;-77
2021/03/07 06:48:12;;;;;;;15.85;6.35;;;;;;;-0.22;44.44;94866.03;5102499;28;20471;-78
2021/03/07 06:51:00;;;;;;;14.85;6.10;;;;;;;-0.12;44.06;94863.69;5104875;28;20051;-78
2021/03/07 06:53:36;;;;;;;12.95;6.07;;;;;;;-0.05;43.45;94861.00;5095471;28;20059;-78
2021/03/07 06:56:03;;;;;;;13.10;6.72;;;;;;;0.01;44.00;94854.06;5092932;28;20023;-79
2021/03/07 06:58:30;;;;;;;12.00;6.18;;;;;;;0.07;44.33;94861.81;5092618;28;20059;-79
2021/03/07 07:00:55;;;;;;;12.70;6.50;;;;;;;0.12;44.48;94861.97;5091602;28;20043;-79
2021/03/07 07:03:21;;;;;;;16.08;6.57;;;;;;;0.19;43.86;94857.44;5092606;28;20024;-79
2021/03/07 07:05:51;;;;;;;14.98;6.70;;;;;;;0.26;43.18;94861.78;5090680;28;20097;-79
2021/03/07 07:08:19;;;;;;;16.35;6.13;;;;;;;0.37;42.70;94853.16;5092766;28;20024;-75
2021/03/07 07:11:02;;;;;;;21.88;6.57;;;;;;;0.37;42.57;94853.16;5090691;28;20442;-76
2021/03/07 07:13:28;;;;;;;12.55;6.70;;;;;;;0.41;42.82;94870.03;5090812;28;20024;-77
2021/03/07 07:16:08;;;;;;;14.80;7.28;;;;;;;0.44;43.29;94859.09;5090580;28;20023;-77
2021/03/07 07:18:38;;;;;;;15.20;7.10;;;;;;;0.50;42.95;94857.38;5091307;28;20477;-72
2021/03/07 07:21:06;;;;;;;11.52;5.95;;;;;;;0.59;42.34;94856.84;5091693;28;20085;-78
2021/03/07 07:23:33;;;;;;;13.10;6.43;;;;;;;0.68;43.41;94856.50;5090521;28;20111;-75
2021/03/07 07:25:59;;;;;;;12.15;6.03;;;;;;;0.83;42.42;94851.59;5089252;28;20418;-77
2021/03/07 07:28:26;;;;;;;14.10;6.32;;;;;;;0.87;41.10;94850.13;5089554;28;20340;-74
2021/03/07 07:31:02;;;;;;;16.85;6.22;;;;;;;0.86;40.98;94845.91;5090394;28;20069;-75
2021/03/07 07:33:53;;;;;;;14.48;6.97;;;;;;;0.85;41.07;94854.00;5079777;28;20030;-78
2021/03/07 07:36:28;;;;;;;11.63;6.47;;;;;;;0.89;41.75;94850.69;5082200;28;20036;-75
2021/03/07 07:38:56;;;;;;;12.32;5.75;;;;;;;0.99;41.25;94847.50;5089660;28;20068;-75
2021/03/07 07:41:36;;;;;;;12.65;6.78;;;;;;;1.10;40.71;94832.78;5088502;28;20391;-75
2021/03/07 07:44:09;;;;;;;15.25;5.82;;;;;;;1.13;40.96;94846.25;5090654;28;20024;-75
2021/03/07 07:46:52;;;;;;;12.75;6.97;;;;;;;1.23;40.05;94837.78;5089265;28;20031;-75
2021/03/07 07:49:34;;;;;;;13.10;6.30;;;;;;;1.23;40.07;94829.91;5090720;28;20403;-75
2021/03/07 07:52:00;;;;;;;13.65;6.40;;;;;;;1.16;40.73;94831.84;5089217;28;20053;-75
2021/03/07 07:55:08;;;;;;;12.18;6.25;;;;;;;1.18;39.86;94828.00;5090699;28;20024;-75
2021/03/07 07:57:35;;;;;;;20.02;6.25;;;;;;;1.22;40.05;94825.69;5048082;28;20037;-75
2021/03/07 08:00:05;;;;;;;16.35;7.03;;;;;;;1.20;39.75;94825.09;5048400;28;20116;-75
2021/03/07 08:02:46;;;;;;;14.57;7.53;;;;;;;1.16;40.01;94821.34;5056435;28;20154;-75
2021/03/07 08:05:20;;;;;;;17.40;6.50;;;;;;;1.07;40.45;94820.91;5089247;28;20047;-75
2021/03/07 08:08:04;;;;;;;13.77;5.85;;;;;;;1.17;40.62;94815.88;5090308;28;20099;-75
2021/03/07 08:10:39;;;;;;;14.75;6.95;;;;;;;1.29;40.01;94817.69;5088944;28;20072;-75
2021/03/07 08:13:09;;;;;;;18.55;6.50;;;;;;;1.39;40.12;94808.19;5089038;28;20076;-75
2021/03/07 08:15:41;;;;;;;14.65;6.20;;;;;;;1.50;39.84;94811.81;5089475;28;20020;-75
2021/03/07 08:18:06;;;;;;;14.27;7.03;;;;;;;1.56;39.49;94804.81;5088561;28;20031;-75
2021/03/07 08:20:38;;;;;;;14.10;6.75;;;;;;;1.63;40.05;94808.13;5088393;28;20020;-75
2021/03/07 08:23:04;;;;;;;17.17;6.90;;;;;;;1.77;39.59;94798.94;5088980;28;20050;-75
2021/03/07 08:25:51;;;;;;;14.27;6.45;;;;;;;1.90;38.95;94787.34;5088669;28;20032;-75
2021/03/07 08:28:29;;;;;;;16.05;6.40;;;;;;;2.07;39.12;94797.09;5088138;28;20031;-75
2021/03/07 08:30:57;;;;;;;12.60;6.05;;;;;;;2.19;38.50;94780.19;5088757;28;20063;-75
2021/03/07 08:33:27;;;;;;;16.00;5.65;;;;;;;2.18;37.61;94783.88;5088194;28;20027;-75
2021/03/07 08:36:22;;;;;;;14.80;6.68;;;;;;;2.01;37.86;94780.41;5088604;28;20407;-75
2021/03/07 08:38:50;;;;;;;17.02;6.32;;;;;;;2.00;38.62;94763.06;5087792;28;20110;-75
2021/03/07 08:41:20;;;;;;;11.43;5.57;;;;;;;2.09;38.51;94763.47;5088006;28;20030;-75
2021/03/07 08:43:48;;;;;;;17.58;7.65;;;;;;;2.20;38.64;94763.41;5089423;28;20032;-75
2021/03/07 08:46:40;;;;;;;14.55;5.78;;;;;;;2.32;39.21;94762.50;5089870;28;20156;-75
2021/03/07 08:49:10;;;;;;;18.60;6.68;;;;;;;2.45;39.84;94764.06;5080179;28;20071;-75
2021/03/07 08:51:38;;;;;;;15.20;6.78;;;;;;;2.52;39.25;94762.03;5088293;28;20046;-75
2021/03/07 08:54:06;;;;;;;16.25;6.90;;;;;;;2.08;38.93;94746.91;5089763;28;20028;-75
2021/03/07 08:56:31;;;;;;;15.77;7.13;;;;;;;2.27;38.85;94747.44;5089562;28;20098;-75
2021/03/07 08:58:57;;;;;;;13.52;6.65;;;;;;;2.43;39.57;94745.88;5090997;28;20115;-75
2021/03/07 09:01:24;;;;;;;12.98;6.50;;;;;;;2.48;39.40;94740.66;5093785;28;20024;-75
2021/03/07 09:04:19;;;;;;;15.32;7.15;;;;;;;2.66;38.44;94736.19;5092384;28;20023;-75
2021/03/07 09:06:46;;;;;;;12.20;6.22;;;;;;;2.78;38.43;94729.78;5079418;28;20093;-75
2021/03/07 09:09:21;;;;;;;16.63;6.95;;;;;;;2.94;38.26;94730.00;5093650;28;20475;-75
2021/03/07 09:11:59;;;;;;;13.10;6.75;;;;;;;2.99;38.70;94725.59;5093464;28;20060;-75
2021/03/07 09:14:35;;;;;;;11.63;6.47;;;;;;;3.05;38.92;94728.28;5093629;28;20064;-75
2021/03/07 09:17:04;;;;;;;14.73;6.25;;;;;;;3.22;38.60;94718.50;5093621;28;20028;-75
2021/03/07 09:19:38;;;;;;;15.70;7.20;;;;;;;3.35;38.12;94718.09;5093345;28;20471;-75
2021/03/07 09:22:15;;;;;;;13.98;7.45;;;;;;;3.44;37.94;94709.78;5092089;28;20028;-75
2021/03/07 09:24:57;;;;;;;17.75;6.85;;;;;;;3.42;37.63;94712.69;5091590;28;20035;-75
2021/03/07 09:27:26;;;;;;;11.93;6.57;;;;;;;3.58;37.97;94705.69;5093523;28;20028;-75
2021/03/07 09:29:52;;;;;;;12.55;6.90;;;;;;;3.68;38.37;94705.81;5091817;28;20032;-75
2021/03/07 09:32:29;;;;;;;24.08;8.70;;;;;;;3.82;37.13;94706.22;5093368;28;20024;-75
2021/03/07 09:34:56;;;;;;;14.13;6.93;;;;;;;3.90;37.52;94686.50;5091894;28;20093;-75
2021/03/07 09:37:23;;;;;;;15.15;6.88;;;;;;;3.65;36.72;94687.06;5091684;28;20024;-75
2021/03/07 09:39:50;;;;;;;14.68;7.82;;;;;;;3.74;37.04;94691.63;5091692;28;20550;-75
2021/03/07 09:42:17;;;;;;;14.15;7.28;;;;;;;3.78;36.86;94676.91;5091759;28;20479;-75
2021/03/07 09:44:43;;;;;;;13.85;6.45;;;;;;;3.76;36.15;94673.72;5091450;28;20024;-76
2021/03/07 09:47:10;;;;;;;17.90;7.50;;;;;;;3.74;36.64;94670.53;5091921;28;20054;-76
2021/03/07 09:49:35;;;;;;;15.35;7.70;;;;;;;3.68;37.03;94663.63;5092719;28;20093;-75
2021/03/07 09:52:02;;;;;;;14.90;7.53;;;;;;;3.59;37.74;94665.13;5091728;28;20539;-75
2021/03/07 09:54:27;;;;;;;14.60;8.07;;;;;;;3.51;37.85;94657.66;5091755;28;20111;-75
2021/03/07 09:56:55;;;;;;;16.88;7.78;;;;;;;3.52;38.27;94659.25;5093387;28;20084;-74
2021/03/07 09:59:32;;;;;;;19.52;7.60;;;;;;;3.66;38.08;94655.16;5092424;28;20031;-74
2021/03/07 10:02:06;;;;;;;16.85;8.02;;;;;;;3.85;37.36;94660.06;5093577;28;20039;-74
2021/03/07 10:04:42;;;;;;;21.02;7.47;;;;;;;3.96;37.42;94651.22;5093382;28;20040;-74
2021/03/07 10:07:10;;;;;;;13.13;7.40;;;;;;;4.16;37.67;94651.38;5092240;28;20051;-74
2021/03/07 10:10:03;;;;;;;15.65;8.25;;;;;;;4.37;37.33;94641.72;5090842;28;20032;-72
2021/03/07 10:12:59;;;;;;;17.83;8.30;;;;;;;4.56;36.23;94636.03;5092303;28;20054;-73
2021/03/07 10:15:39;;;;;;;16.58;8.27;;;;;;;4.68;35.28;94627.91;5079606;28;20521;-72
2021/03/07 10:18:14;;;;;;;17.45;8.05;;;;;;;4.73;36.08;94620.03;5093175;28;20077;-72
2021/03/07 10:20:44;;;;;;;16.20;8.30;;;;;;;4.70;36.06;94610.78;5092032;28;20031;-73
2021/03/07 10:23:10;;;;;;;20.15;8.10;;;;;;;4.87;35.83;94613.22;5092923;28;20024;-73
2021/03/07 10:25:37;;;;;;;15.85;8.38;;;;;;;5.01;35.64;94600.31;5093106;28;20028;-73
2021/03/07 10:28:06;;;;;;;23.63;7.63;;;;;;;5.14;35.62;94599.03;5091688;28;20085;-73
2021/03/07 10:30:36;;;;;;;15.85;8.27;;;;;;;5.25;36.17;94598.03;5093055;28;20483;-73
2021/03/07 10:33:27;;;;;;;16.23;8.32;;;;;;;5.43;35.89;94589.59;5091253;28;20028;-73
2021/03/07 10:36:08;;;;;;;16.60;8.25;;;;;;;5.60;35.78;94589.34;5091346;28;20032;-73
2021/03/07 10:38:43;;;;;;;13.80;7.50;;;;;;;5.74;35.38;94579.03;5091358;28;20525;-73
2021/03/07 10:41:20;;;;;;;28.30;12.32;;;;;;;5.92;34.91;94587.47;5091169;28;20104;-73
2021/03/07 10:43:53;;;;;;;19.13;9.18;;;;;;;6.02;34.07;94575.09;5091341;28;20111;-73
2021/03/07 10:46:41;;;;;;;18.70;8.75;;;;;;;6.02;34.08;94571.63;5091355;28;20066;-73
2021/03/07 10:49:08;;;;;;;14.77;8.35;;;;;;;5.76;34.20;94563.69;5091276;28;20465;-73
2021/03/07 10:51:35;;;;;;;17.58;7.75;;;;;;;5.73;34.39;94561.56;5091453;28;20483;-73
2021/03/07 10:54:01;;;;;;;20.42;9.23;;;;;;;5.57;34.76;94560.75;5091174;28;20119;-73
2021/03/07 10:56:34;;;;;;;18.02;9.43;;;;;;;5.70;34.09;94545.41;5091014;28;20122;-73
2021/03/07 10:59:01;;;;;;;20.15;8.90;;;;;;;5.65;33.40;94540.94;5092234;28;20024;-73
2021/03/07 11:01:27;;;;;;;21.05;9.57;;;;;;;5.46;34.09;94542.53;5090903;28;20024;-73
2021/03/07 11:03:52;;;;;;;20.13;9.32;;;;;;;5.35;34.64;94529.31;5091342;28;20027;-74
2021/03/07 11:06:19;;;;;;;16.65;9.13;;;;;;;5.42;35.14;94524.53;5090902;28;20040;-73
2021/03/07 11:08:48;;;;;;;16.65;8.73;;;;;;;5.45;36.27;94515.28;5092397;28;20129;-73
2021/03/07 11:11:14;;;;;;;14.65;8.57;;;;;;;5.67;36.46;94515.00;5091912;28;20507;-73
2021/03/07 11:13:40;;;;;;;21.42;9.32;;;;;;;5.73;34.16;94505.22;5092204;28;20082;-73
2021/03/07 11:16:06;;;;;;;20.75;9.13;;;;;;;5.77;34.70;94509.72;5090612;28;20030;-73
2021/03/07 11:18:32;;;;;;;21.25;8.60;;;;;;;5.91;35.66;94503.88;5092502;28;20029;-73
2021/03/07 11:20:58;;;;;;;18.02;7.70;;;;;;;6.12;35.94;94497.50;5090250;28;20039;-74
2021/03/07 11:23:23;;;;;;;22.92;9.20;;;;;;;6.36;35.17;94491.63;5090606;28;20027;-73
2021/03/07 11:25:49;;;;;;;16.58;8.38;;;;;;;6.56;34.89;94485.44;5091497;28;20094;-73
2021/03/07 11:28:14;;;;;;;17.17;9.05;;;;;;;6.84;34.39;94486.63;5090940;28;20020;-73
2021/03/07 11:30:40;;;;;;;17.30;7.85;;;;;;;6.94;33.54;94480.47;5091463;28;20475;-73
2021/03/07 11:33:06;;;;;;;14.57;8.38;;;;;;;7.07;32.71;94476.44;5091618;28;20036;-73
2021/03/07 11:35:32;;;;;;;11.55;7.30;;;;;;;7.12;33.40;94463.91;5092802;28;20054;-73
2021/03/07 11:37:58;;;;;;;20.13;7.95;;;;;;;7.21;32.09;94464.13;5091209;28;20024;-73
2021/03/07 11:40:25;;;;;;;16.60;7.65;;;;;;;7.11;31.83;94459.69;5090856;28;20024;-73
2021/03/07 11:42:50;;;;;;;20.45;8.50;;;;;;;6.98;32.54;94455.00;5091869;28;20403;-72